Time;durP1;ratioP1;P1;durP2;ratioP2;P2;SDS_P1;SDS_P2;PMS_P1;PMS_P2;Temp;Humidity;BMP_temperature;BMP_pressure;BME280_temperature;BME280_humidity;BME280_pressure;Samples;Min_cycle;Max_cycle;Signal;HPM_P1;HPM_P2
2021/07/14 00:00:02;;;;;;;28.27;15.77;;;17.80;99.90;;;;;;5036532;28;20267;-76
2021/07/14 00:02:29;;;;;;;28.58;15.65;;;17.80;99.90;;;;;;5046628;28;20213;-74
2021/07/14 00:04:55;;;;;;;32.75;16.92;;;17.80;99.90;;;;;;5046910;28;20217;-78
2021/07/14 00:07:24;;;;;;;33.92;17.83;;;17.80;99.90;;;;;;5046268;28;20226;-78
2021/07/14 00:09:50;;;;;;;26.63;15.70;;;17.80;99.90;;;;;;5035296;28;20207;-79
2021/07/14 00:12:18;;;;;;;37.38;18.42;;;17.80;99.90;;;;;;5025617;28;20213;-80
2021/07/14 00:15:04;;;;;;;32.75;17.45;;;17.80;99.90;;;;;;5026279;28;20587;-78
2021/07/14 00:17:43;;;;;;;27.80;16.75;;;17.80;99.90;;;;;;5026381;28;20210;-79
2021/07/14 00:22:56;;;;;;;31.30;16.20;;;17.80;99.90;;;;;;5026535;28;20241;-79
2021/07/14 00:25:23;;;;;;;29.60;17.98;;;17.80;99.90;;;;;;5026003;28;20231;-78
2021/07/14 00:27:53;;;;;;;28.30;16.27;;;17.80;99.90;;;;;;5025955;28;20235;-77
2021/07/14 00:30:26;;;;;;;31.30;17.50;;;17.80;99.90;;;;;;5025641;28;20214;-79
2021/07/14 00:32:52;;;;;;;30.58;17.15;;;17.80;99.90;;;;;;5025883;28;20259;-77
2021/07/14 00:35:19;;;;;;;30.88;16.90;;;17.80;99.90;;;;;;5025810;28;20206;-76
2021/07/14 00:37:46;;;;;;;29.63;17.58;;;17.80;99.90;;;;;;5025376;28;20921;-78
2021/07/14 00:40:15;;;;;;;27.48;17.83;;;17.80;99.90;;;;;;5025581;28;20198;-76
2021/07/14 00:42:45;;;;;;;31.45;17.55;;;17.80;99.90;;;;;;5026246;28;20211;-78
2021/07/14 00:45:13;;;;;;;27.95;18.23;;;17.80;99.90;;;;;;5025247;28;20195;-77
2021/07/14 00:47:44;;;;;;;25.60;17.58;;;17.80;99.90;;;;;;5025637;28;20407;-78
2021/07/14 00:50:13;;;;;;;32.03;18.60;;;17.80;99.90;;;;;;5025325;28;20245;-80
2021/07/14 00:52:39;;;;;;;24.65;17.08;;;17.80;99.90;;;;;;5025083;28;20276;-80
2021/07/14 00:55:07;;;;;;;27.23;18.23;;;17.80;99.90;;;;;;5026196;28;20213;-83
2021/07/14 00:57:36;;;;;;;27.67;19.02;;;17.80;99.90;;;;;;5025958;28;20207;-77
2021/07/14 01:00:05;;;;;;;28.45;18.63;;;17.80;99.90;;;;;;5025248;28;20797;-81
2021/07/14 01:02:32;;;;;;;27.63;16.75;;;17.80;99.90;;;;;;5025920;28;20210;-81
2021/07/14 01:05:05;;;;;;;21.75;16.95;;;17.80;99.90;;;;;;5025969;28;20206;-78
2021/07/14 01:07:37;;;;;;;23.98;16.95;;;17.70;99.90;;;;;;5025082;28;20316;-80
2021/07/14 01:10:06;;;;;;;23.40;16.23;;;17.70;99.90;;;;;;5025625;28;20191;-79
2021/07/14 01:12:43;;;;;;;24.25;16.17;;;17.70;99.90;;;;;;5025371;28;20241;-80
2021/07/14 01:15:13;;;;;;;23.92;14.85;;;17.70;99.90;;;;;;5026264;28;20202;-79
2021/07/14 01:17:47;;;;;;;16.45;14.10;;;17.70;99.90;;;;;;5027734;28;20198;-80
2021/07/14 01:20:22;;;;;;;18.48;14.93;;;17.70;99.90;;;;;;5045154;28;20558;-78
2021/07/14 01:22:59;;;;;;;18.13;14.32;;;17.70;99.90;;;;;;5045562;28;20186;-80
2021/07/14 01:25:41;;;;;;;20.35;15.25;;;17.70;99.90;;;;;;5031253;28;20879;-80
2021/07/14 01:28:10;;;;;;;19.50;15.15;;;17.70;99.90;;;;;;5023511;28;20230;-79
2021/07/14 01:30:37;;;;;;;17.35;13.65;;;17.70;99.90;;;;;;5024947;28;20194;-80
2021/07/14 01:33:07;;;;;;;15.55;13.27;;;17.60;99.90;;;;;;5025523;28;20214;-78
2021/07/14 01:35:37;;;;;;;18.40;14.45;;;17.70;99.90;;;;;;5024571;28;20199;-77
2021/07/14 01:38:06;;;;;;;18.15;13.25;;;17.60;99.90;;;;;;5039474;28;20252;-79
2021/07/14 01:40:35;;;;;;;15.02;13.15;;;17.70;99.90;;;;;;5044509;28;20206;-79
2021/07/14 01:43:04;;;;;;;18.40;13.10;;;17.70;99.90;;;;;;5043648;28;20212;-78
2021/07/14 01:45:36;;;;;;;15.18;13.30;;;17.60;99.90;;;;;;5038775;28;20219;-78
2021/07/14 01:48:05;;;;;;;19.50;15.00;;;17.70;99.90;;;;;;5024119;28;20323;-78
2021/07/14 01:50:34;;;;;;;14.18;12.70;;;17.70;99.90;;;;;;5024829;28;20238;-78
2021/07/14 01:53:01;;;;;;;18.48;15.18;;;17.70;99.90;;;;;;5024637;28;20218;-80
2021/07/14 01:55:30;;;;;;;23.30;14.98;;;17.70;99.90;;;;;;5042560;28;20210;-80
2021/07/14 01:57:58;;;;;;;18.92;16.08;;;17.70;99.90;;;;;;5045120;28;20202;-80
2021/07/14 02:00:27;;;;;;;22.10;15.43;;;17.70;99.90;;;;;;5045784;28;20193;-81
2021/07/14 02:03:04;;;;;;;18.88;16.67;;;17.70;99.90;;;;;;5036551;28;20203;-81
2021/07/14 02:05:32;;;;;;;24.30;17.02;;;17.70;99.90;;;;;;5025894;28;20292;-79
2021/07/14 02:08:00;;;;;;;23.35;17.52;;;17.70;99.90;;;;;;5043358;28;20237;-81
2021/07/14 02:10:28;;;;;;;23.60;17.42;;;17.60;99.90;;;;;;5028313;28;20606;-83
2021/07/14 02:12:55;;;;;;;24.92;17.05;;;17.60;99.90;;;;;;5026299;28;20575;-81
2021/07/14 02:15:23;;;;;;;24.85;18.55;;;17.60;99.90;;;;;;5025359;28;20203;-81
2021/07/14 02:17:57;;;;;;;30.33;20.67;;;17.60;99.90;;;;;;5025565;28;20207;-82
2021/07/14 02:20:25;;;;;;;23.63;18.52;;;17.60;99.90;;;;;;5025733;28;20477;-80
2021/07/14 02:22:52;;;;;;;19.42;16.55;;;17.70;99.90;;;;;;5026900;28;20209;-82
2021/07/14 02:25:21;;;;;;;21.25;15.02;;;17.60;99.90;;;;;;5044917;28;20291;-81
2021/07/14 02:27:48;;;;;;;18.73;15.90;;;17.70;99.90;;;;;;5045643;28;20225;-82
2021/07/14 02:30:18;;;;;;;21.40;15.88;;;17.60;99.90;;;;;;5047162;28;20198;-82
2021/07/14 02:32:47;;;;;;;20.17;16.23;;;17.60;99.90;;;;;;5047239;28;20233;-82
2021/07/14 02:35:16;;;;;;;20.90;17.77;;;17.60;99.90;;;;;;5049753;28;20201;-82
2021/07/14 02:37:57;;;;;;;20.80;18.52;;;17.60;99.90;;;;;;5049913;28;20202;-81
2021/07/14 02:40:28;;;;;;;24.77;17.75;;;17.60;99.90;;;;;;5049860;28;20212;-82
2021/07/14 02:42:57;;;;;;;25.40;17.40;;;17.60;99.90;;;;;;5050783;28;20198;-82
2021/07/14 02:45:25;;;;;;;21.52;17.75;;;17.60;99.90;;;;;;5048526;28;20480;-81
2021/07/14 02:47:53;;;;;;;22.50;16.30;;;17.60;99.90;;;;;;5050455;28;20225;-83
2021/07/14 02:50:24;;;;;;;21.20;16.42;;;17.60;99.90;;;;;;5048682;28;20246;-84
2021/07/14 02:52:54;;;;;;;23.85;17.13;;;17.60;99.90;;;;;;5049479;28;20206;-79
2021/07/14 02:55:25;;;;;;;25.92;16.98;;;17.60;99.90;;;;;;5049656;28;20202;-82
2021/07/14 02:57:58;;;;;;;27.70;18.92;;;17.60;99.90;;;;;;5042394;28;20210;-80
2021/07/14 03:00:27;;;;;;;24.95;19.42;;;17.60;99.90;;;;;;5029566;28;20473;-81
2021/07/14 03:02:55;;;;;;;28.48;19.90;;;17.60;99.90;;;;;;5028531;28;20206;-78
2021/07/14 03:05:23;;;;;;;29.67;20.48;;;17.60;99.90;;;;;;5028935;28;20202;-81
2021/07/14 03:07:51;;;;;;;21.55;18.10;;;17.70;99.90;;;;;;5030215;28;20249;-82
2021/07/14 03:10:19;;;;;;;24.60;19.10;;;17.60;99.90;;;;;;5041135;28;20235;-80
2021/07/14 03:12:47;;;;;;;29.05;18.67;;;17.60;99.90;;;;;;5046810;28;20210;-82
2021/07/14 03:15:14;;;;;;;22.90;17.70;;;17.60;99.90;;;;;;5048099;28;20194;-80
2021/07/14 03:17:43;;;;;;;21.10;17.13;;;17.60;99.90;;;;;;5043878;28;20215;-79
2021/07/14 03:20:14;;;;;;;25.85;17.48;;;17.60;99.90;;;;;;5028456;28;20206;-83
2021/07/14 03:22:46;;;;;;;20.70;15.80;;;17.60;99.90;;;;;;5029372;28;20198;-83
2021/07/14 03:25:13;;;;;;;18.48;15.88;;;17.60;99.90;;;;;;5029857;28;20226;-82
2021/07/14 03:27:42;;;;;;;25.85;17.58;;;17.60;99.90;;;;;;5028235;28;20229;-78
2021/07/14 03:30:10;;;;;;;24.17;17.85;;;17.50;99.90;;;;;;5028336;28;20229;-84
2021/07/14 03:32:38;;;;;;;26.65;18.63;;;17.60;99.90;;;;;;5028689;28;20812;-82
2021/07/14 03:35:06;;;;;;;29.70;19.52;;;17.60;99.90;;;;;;5027599;28;20199;-79
2021/07/14 03:37:33;;;;;;;29.67;20.02;;;17.60;99.90;;;;;;5047549;28;20825;-81
2021/07/14 03:40:04;;;;;;;29.65;20.25;;;17.60;99.90;;;;;;5048431;28;20198;-82
2021/07/14 03:42:32;;;;;;;27.83;20.85;;;17.50;99.90;;;;;;5043393;28;20207;-80
2021/07/14 03:45:00;;;;;;;28.58;20.25;;;17.60;99.90;;;;;;5030977;28;20210;-82
2021/07/14 03:47:28;;;;;;;29.05;20.85;;;17.50;99.90;;;;;;5031803;28;20717;-83
2021/07/14 03:49:56;;;;;;;26.58;19.90;;;17.50;99.90;;;;;;5045446;28;20249;-82
2021/07/14 03:52:24;;;;;;;29.88;19.85;;;17.50;99.90;;;;;;5050464;28;20207;-79
2021/07/14 03:54:54;;;;;;;28.63;19.35;;;17.50;99.90;;;;;;5049322;28;20217;-80
2021/07/14 03:57:22;;;;;;;30.35;21.25;;;17.50;99.90;;;;;;5048546;28;20213;-80
2021/07/14 03:59:50;;;;;;;26.35;19.00;;;17.50;99.90;;;;;;5048161;28;20214;-80
2021/07/14 04:02:17;;;;;;;22.77;17.75;;;17.50;99.90;;;;;;5040951;28;20210;-80
2021/07/14 04:04:46;;;;;;;22.02;17.65;;;17.50;99.90;;;;;;5027357;28;20210;-78
2021/07/14 04:07:16;;;;;;;24.42;17.67;;;17.50;99.90;;;;;;5026849;28;20412;-79
2021/07/14 04:09:45;;;;;;;22.60;16.05;;;17.50;99.90;;;;;;5030089;28;20217;-80
2021/07/14 04:12:12;;;;;;;23.48;17.70;;;17.50;99.90;;;;;;5046961;28;20516;-82
2021/07/14 04:14:41;;;;;;;27.98;20.63;;;17.50;99.90;;;;;;5046801;28;20202;-80
2021/07/14 04:17:08;;;;;;;30.83;19.77;;;17.50;99.90;;;;;;5034906;28;20206;-80
2021/07/14 04:19:35;;;;;;;31.38;20.40;;;17.50;99.90;;;;;;5027409;28;20203;-79
2021/07/14 04:22:04;;;;;;;31.70;19.77;;;17.50;99.90;;;;;;5026945;28;20210;-80
2021/07/14 04:24:31;;;;;;;25.17;19.42;;;17.50;99.90;;;;;;5026116;28;20198;-82
2021/07/14 04:26:58;;;;;;;30.65;20.15;;;17.50;99.90;;;;;;5026816;28;20561;-80
2021/07/14 04:29:25;;;;;;;23.50;19.45;;;17.50;99.90;;;;;;5039939;28;20201;-76
2021/07/14 04:31:53;;;;;;;30.08;20.02;;;17.50;99.90;;;;;;5047300;28;20206;-78
2021/07/14 04:34:20;;;;;;;30.77;22.00;;;17.50;99.90;;;;;;5028186;28;20214;-79
2021/07/14 04:36:46;;;;;;;25.45;19.48;;;17.50;99.90;;;;;;5026241;28;20206;-80
2021/07/14 04:39:13;;;;;;;27.30;19.25;;;17.50;99.90;;;;;;5026304;28;20483;-83
2021/07/14 04:41:41;;;;;;;30.55;21.00;;;17.50;99.90;;;;;;5026890;28;20207;-82
2021/07/14 04:44:10;;;;;;;26.10;20.20;;;17.40;99.90;;;;;;5025693;28;20203;-81
2021/07/14 04:46:37;;;;;;;27.08;20.48;;;17.40;99.90;;;;;;5026343;28;20611;-80
2021/07/14 04:49:06;;;;;;;28.30;21.23;;;17.40;99.90;;;;;;5025897;28;20253;-81
2021/07/14 04:51:33;;;;;;;32.58;22.17;;;17.50;99.90;;;;;;5026672;28;20375;-79
2021/07/14 04:54:00;;;;;;;30.02;22.08;;;17.50;99.90;;;;;;5045026;28;20213;-80
2021/07/14 04:56:27;;;;;;;32.78;23.23;;;17.50;99.90;;;;;;5045217;28;20984;-79
2021/07/14 04:58:53;;;;;;;29.98;21.33;;;17.50;99.90;;;;;;5028262;28;20219;-80
2021/07/14 05:01:20;;;;;;;28.17;21.40;;;17.50;99.90;;;;;;5033634;28;20605;-82
2021/07/14 05:03:48;;;;;;;28.88;21.27;;;17.50;99.90;;;;;;5039962;28;20210;-80
2021/07/14 05:06:17;;;;;;;32.03;21.67;;;17.50;99.90;;;;;;5028682;28;20260;-81
2021/07/14 05:08:45;;;;;;;30.45;21.83;;;17.50;99.90;;;;;;5029462;28;20238;-80
2021/07/14 05:11:12;;;;;;;32.65;22.20;;;17.50;99.90;;;;;;5028502;28;20195;-81
2021/07/14 05:13:39;;;;;;;31.85;21.60;;;17.50;99.90;;;;;;5027141;28;20209;-81
2021/07/14 05:16:08;;;;;;;26.25;19.60;;;17.50;99.90;;;;;;5025883;28;20596;-79
2021/07/14 05:18:35;;;;;;;34.53;22.67;;;17.50;99.90;;;;;;5025626;28;20199;-78
2021/07/14 05:21:02;;;;;;;37.22;21.17;;;17.60;99.90;;;;;;5025968;28;20207;-80
2021/07/14 05:23:30;;;;;;;27.35;20.33;;;17.60;99.90;;;;;;5026158;28;20226;-80
2021/07/14 05:25:57;;;;;;;28.85;20.58;;;17.60;99.90;;;;;;5025822;28;20269;-81
2021/07/14 05:28:24;;;;;;;23.50;18.45;;;17.60;99.90;;;;;;5025860;28;20222;-80
2021/07/14 05:30:51;;;;;;;24.50;18.63;;;17.60;99.90;;;;;;5025806;28;20198;-82
2021/07/14 05:33:18;;;;;;;23.42;18.05;;;17.70;99.90;;;;;;5025157;28;20198;-80
2021/07/14 05:35:45;;;;;;;26.00;18.25;;;17.70;99.90;;;;;;5026141;28;20210;-80
2021/07/14 05:38:18;;;;;;;22.13;17.90;;;17.70;99.90;;;;;;5039599;28;20217;-82
2021/07/14 05:40:47;;;;;;;19.67;15.68;;;17.70;99.90;;;;;;5045256;28;20788;-82
2021/07/14 05:43:14;;;;;;;20.45;16.02;;;17.70;99.90;;;;;;5045967;28;20202;-82
2021/07/14 05:45:41;;;;;;;24.30;16.98;;;17.70;99.90;;;;;;5037681;28;20229;-81
2021/07/14 05:48:08;;;;;;;22.15;17.33;;;17.70;99.90;;;;;;5025007;28;20269;-82
2021/07/14 05:50:35;;;;;;;21.17;16.30;;;17.70;99.90;;;;;;5025541;28;20245;-80
2021/07/14 05:53:02;;;;;;;21.88;17.50;;;17.70;99.90;;;;;;5044268;28;20210;-81
2021/07/14 05:55:29;;;;;;;22.90;16.98;;;17.70;99.90;;;;;;5045155;28;20197;-79
2021/07/14 05:57:57;;;;;;;23.77;17.00;;;17.80;99.90;;;;;;5031818;28;20206;-82
2021/07/14 06:00:24;;;;;;;25.45;19.40;;;17.80;99.90;;;;;;5025013;28;20206;-82
2021/07/14 06:02:51;;;;;;;24.02;18.60;;;17.80;99.90;;;;;;5024991;28;20205;-81
2021/07/14 06:05:17;;;;;;;23.25;18.33;;;17.80;99.90;;;;;;5025087;28;20214;-80
2021/07/14 06:07:44;;;;;;;27.52;18.98;;;17.80;99.90;;;;;;5024963;28;20209;-80
2021/07/14 06:10:11;;;;;;;25.88;18.38;;;17.80;99.90;;;;;;5027130;28;20817;-82
2021/07/14 06:12:38;;;;;;;28.95;19.95;;;17.80;99.90;;;;;;5044715;28;20213;-80
2021/07/14 06:15:07;;;;;;;28.55;19.42;;;17.90;99.90;;;;;;5048166;28;20202;-77
2021/07/14 06:17:34;;;;;;;27.25;19.90;;;17.90;99.90;;;;;;5049020;28;20634;-79
2021/07/14 06:20:02;;;;;;;25.73;19.10;;;17.90;99.90;;;;;;5039184;28;20213;-80
2021/07/14 06:22:29;;;;;;;30.90;19.42;;;17.90;99.90;;;;;;5043841;28;20265;-80
2021/07/14 06:24:56;;;;;;;30.80;19.13;;;17.90;99.90;;;;;;5035827;28;20219;-78
2021/07/14 06:27:23;;;;;;;30.17;19.55;;;17.90;99.90;;;;;;5032724;28;20219;-81
2021/07/14 06:29:50;;;;;;;34.95;21.98;;;17.90;99.90;;;;;;5043518;28;20236;-82
2021/07/14 06:32:18;;;;;;;28.75;20.48;;;17.90;99.90;;;;;;5048464;28;20201;-80
2021/07/14 06:34:45;;;;;;;24.75;19.55;;;17.90;99.90;;;;;;5048824;28;20205;-78
2021/07/14 06:37:11;;;;;;;27.85;19.63;;;17.90;99.90;;;;;;5048327;28;20206;-80
2021/07/14 06:39:38;;;;;;;25.02;18.17;;;17.90;99.90;;;;;;5049102;28;20197;-78
2021/07/14 06:42:06;;;;;;;23.60;17.33;;;17.90;99.90;;;;;;5036162;28;20203;-80
2021/07/14 06:44:36;;;;;;;22.13;15.73;;;17.90;99.90;;;;;;5028843;28;20206;-81
2021/07/14 06:47:04;;;;;;;21.42;16.85;;;17.90;99.90;;;;;;5028151;28;20695;-78
2021/07/14 06:49:32;;;;;;;22.98;17.02;;;17.90;99.90;;;;;;5028545;28;20230;-83
2021/07/14 06:51:59;;;;;;;18.73;15.70;;;17.90;99.90;;;;;;5033704;28;20654;-78
2021/07/14 06:54:28;;;;;;;21.00;16.08;;;18.00;99.90;;;;;;5048659;28;20205;-81
2021/07/14 06:56:55;;;;;;;21.30;15.77;;;17.90;99.90;;;;;;5048566;28;20228;-82
2021/07/14 06:59:22;;;;;;;20.33;16.42;;;18.00;99.90;;;;;;5041717;28;20509;-79
2021/07/14 07:01:49;;;;;;;19.20;15.43;;;18.00;99.90;;;;;;5028722;28;20218;-79
2021/07/14 07:04:16;;;;;;;20.63;15.48;;;18.00;99.90;;;;;;5027966;28;20210;-79
2021/07/14 07:06:44;;;;;;;20.67;15.23;;;18.00;99.90;;;;;;5026512;28;20229;-80
2021/07/14 07:09:11;;;;;;;20.65;15.05;;;17.90;99.90;;;;;;5027152;28;20669;-82
2021/07/14 07:11:37;;;;;;;20.63;15.25;;;17.90;99.90;;;;;;5030698;28;20733;-83
2021/07/14 07:14:04;;;;;;;18.40;13.45;;;17.90;99.90;;;;;;5039331;28;20206;-78
2021/07/14 07:16:31;;;;;;;22.08;15.27;;;17.90;99.90;;;;;;5049170;28;20256;-82
2021/07/14 07:18:58;;;;;;;15.85;12.82;;;17.90;99.90;;;;;;5047587;28;20259;-81
2021/07/14 07:21:25;;;;;;;18.40;13.32;;;17.90;99.90;;;;;;5048946;28;20209;-81
2021/07/14 07:23:54;;;;;;;19.02;12.98;;;18.00;99.90;;;;;;5048575;28;20363;-79
2021/07/14 07:26:21;;;;;;;14.52;10.75;;;17.90;99.90;;;;;;5029463;28;20284;-79
2021/07/14 07:28:48;;;;;;;14.88;10.48;;;17.90;99.90;;;;;;5029686;28;20225;-83
2021/07/14 07:31:14;;;;;;;15.30;10.77;;;18.00;99.90;;;;;;5028746;28;20325;-80
2021/07/14 07:33:41;;;;;;;14.80;10.45;;;17.90;99.90;;;;;;5027592;28;20214;-79
2021/07/14 07:36:08;;;;;;;15.50;10.88;;;18.00;99.90;;;;;;5026990;28;20203;-78
2021/07/14 07:38:37;;;;;;;13.70;10.05;;;18.00;99.90;;;;;;5027405;28;20206;-77
2021/07/14 07:41:06;;;;;;;14.50;10.73;;;18.00;99.90;;;;;;5032321;28;20263;-81
2021/07/14 07:43:33;;;;;;;14.23;9.90;;;18.00;99.90;;;;;;5041733;28;20195;-79
2021/07/14 07:46:00;;;;;;;14.15;10.63;;;18.00;99.90;;;;;;5043544;28;20225;-79
2021/07/14 07:48:28;;;;;;;14.13;11.73;;;18.10;99.90;;;;;;5047383;28;20233;-79
2021/07/14 07:50:55;;;;;;;18.88;11.35;;;18.10;99.90;;;;;;5048425;28;20226;-83
2021/07/14 07:53:22;;;;;;;15.18;11.32;;;18.10;99.90;;;;;;5047044;28;20202;-81
2021/07/14 07:55:52;;;;;;;15.65;10.85;;;18.10;99.90;;;;;;5044909;28;20212;-81
2021/07/14 07:58:20;;;;;;;14.48;10.77;;;18.00;99.90;;;;;;5027142;28;20211;-81
2021/07/14 08:00:48;;;;;;;15.50;10.55;;;18.00;99.90;;;;;;5027243;28;20215;-81
2021/07/14 08:03:15;;;;;;;12.57;9.60;;;18.00;99.90;;;;;;5027155;28;20210;-82
2021/07/14 08:05:43;;;;;;;15.68;11.10;;;18.00;99.90;;;;;;5028586;28;20215;-80
2021/07/14 08:08:10;;;;;;;13.35;10.98;;;18.00;99.90;;;;;;5027688;28;20497;-79
2021/07/14 08:10:37;;;;;;;11.40;9.25;;;18.00;99.90;;;;;;5027977;28;20221;-78
2021/07/14 08:13:04;;;;;;;13.15;10.00;;;18.00;99.90;;;;;;5028287;28;20788;-74
2021/07/14 08:15:33;;;;;;;13.10;10.75;;;18.00;99.90;;;;;;5026696;28;20202;-82
2021/07/14 08:18:00;;;;;;;13.23;11.50;;;18.00;99.90;;;;;;5027863;28;20241;-81
2021/07/14 08:20:27;;;;;;;17.05;12.20;;;18.00;99.90;;;;;;5026501;28;20206;-79
2021/07/14 08:22:54;;;;;;;15.43;12.20;;;18.00;99.90;;;;;;5026565;28;20580;-77
2021/07/14 08:25:21;;;;;;;16.88;11.40;;;18.00;99.90;;;;;;5026963;28;20226;-78
2021/07/14 08:27:48;;;;;;;17.85;12.68;;;18.10;99.90;;;;;;5028043;28;20217;-82
2021/07/14 08:30:15;;;;;;;13.73;11.00;;;18.10;99.90;;;;;;5026044;28;20226;-78
2021/07/14 08:32:44;;;;;;;15.00;11.55;;;18.20;99.90;;;;;;5025994;28;20209;-76
2021/07/14 08:35:12;;;;;;;14.43;11.18;;;18.20;99.90;;;;;;5026853;28;20210;-79
2021/07/14 08:37:38;;;;;;;14.95;11.60;;;18.20;99.90;;;;;;5027338;28;20206;-79
2021/07/14 08:40:09;;;;;;;18.63;11.55;;;18.30;99.90;;;;;;5026506;28;20285;-79
2021/07/14 08:42:39;;;;;;;16.60;11.35;;;18.20;99.90;;;;;;5025619;28;20206;-79
2021/07/14 08:45:09;;;;;;;15.93;11.20;;;18.10;99.90;;;;;;5026330;28;20522;-76
2021/07/14 08:47:36;;;;;;;18.58;12.65;;;18.20;99.90;;;;;;5026263;28;20786;-79
2021/07/14 08:50:06;;;;;;;15.02;11.38;;;18.10;99.90;;;;;;5025775;28;20269;-78
2021/07/14 08:52:33;;;;;;;16.52;11.35;;;18.10;99.90;;;;;;5026774;28;20195;-79
2021/07/14 08:55:00;;;;;;;12.20;10.10;;;18.20;99.90;;;;;;5026541;28;20566;-78
2021/07/14 08:57:27;;;;;;;12.60;9.20;;;18.20;99.90;;;;;;5026190;28;20210;-76
2021/07/14 08:59:54;;;;;;;13.52;10.85;;;18.30;99.90;;;;;;5026176;28;20206;-80
2021/07/14 09:02:20;;;;;;;15.38;11.38;;;18.30;99.90;;;;;;5026481;28;20209;-77
2021/07/14 09:04:47;;;;;;;13.63;10.10;;;18.40;99.90;;;;;;5029825;28;20210;-76
2021/07/14 09:07:16;;;;;;;15.88;10.98;;;18.40;99.90;;;;;;5045903;28;20689;-78
2021/07/14 09:09:43;;;;;;;16.08;10.90;;;18.40;99.90;;;;;;5034423;28;20277;-78
2021/07/14 09:12:12;;;;;;;18.23;11.02;;;18.50;99.90;;;;;;5025451;28;20237;-82
2021/07/14 09:14:40;;;;;;;13.85;11.35;;;18.60;99.90;;;;;;5026772;28;20769;-77
2021/07/14 09:17:24;;;;;;;17.17;11.93;;;18.70;99.90;;;;;;5025563;28;20666;-79
2021/07/14 09:19:52;;;;;;;15.23;11.65;;;18.70;99.90;;;;;;5023339;28;20436;-82
2021/07/14 09:22:22;;;;;;;17.27;12.50;;;18.80;99.90;;;;;;5025234;28;20209;-79
2021/07/14 09:24:49;;;;;;;17.92;12.38;;;18.90;99.90;;;;;;5024722;28;20233;-81
2021/07/14 09:27:27;;;;;;;15.98;11.23;;;18.90;99.90;;;;;;5025364;28;20210;-79
2021/07/14 09:30:08;;;;;;;16.98;12.15;;;19.00;99.90;;;;;;5033156;28;20324;-79
2021/07/14 09:32:44;;;;;;;12.35;10.40;;;19.00;99.90;;;;;;5042934;28;20206;-77
2021/07/14 09:35:11;;;;;;;13.35;10.05;;;19.20;99.90;;;;;;5024364;28;20198;-79
2021/07/14 09:37:39;;;;;;;18.63;10.82;;;19.40;99.90;;;;;;5024426;28;20658;-82
2021/07/14 09:40:15;;;;;;;11.25;8.68;;;19.60;99.90;;;;;;5024387;28;20217;-77
2021/07/14 09:42:51;;;;;;;11.25;8.98;;;19.80;99.90;;;;;;5024911;28;20202;-79
2021/07/14 09:45:24;;;;;;;13.02;9.15;;;20.00;99.90;;;;;;5024284;28;20202;-78
2021/07/14 09:47:57;;;;;;;10.27;8.40;;;20.30;99.90;;;;;;5024454;28;20214;-79
2021/07/14 09:50:32;;;;;;;9.95;7.80;;;20.40;99.90;;;;;;5025099;28;20256;-78
2021/07/14 09:53:05;;;;;;;9.90;6.90;;;20.60;99.90;;;;;;5024826;28;20233;-79
2021/07/14 09:55:32;;;;;;;8.63;7.20;;;20.90;99.90;;;;;;5025951;28;20198;-80
2021/07/14 09:58:10;;;;;;;7.35;6.55;;;20.90;99.90;;;;;;5025057;28;20214;-78
2021/07/14 10:00:45;;;;;;;8.25;6.45;;;20.90;99.90;;;;;;5024760;28;20206;-79
2021/07/14 10:03:19;;;;;;;10.40;6.38;;;20.90;99.90;;;;;;5026018;28;20197;-78
2021/07/14 10:05:46;;;;;;;7.88;6.40;;;20.80;99.90;;;;;;5025301;28;20195;-78
2021/07/14 10:08:20;;;;;;;8.32;6.47;;;20.80;99.90;;;;;;5023978;28;20198;-80
2021/07/14 10:10:48;;;;;;;9.30;7.18;;;20.60;99.90;;;;;;5025374;28;20226;-82
2021/07/14 10:13:16;;;;;;;7.25;6.53;;;20.50;99.90;;;;;;5025161;28;20202;-80
2021/07/14 10:15:43;;;;;;;7.50;6.53;;;20.50;99.90;;;;;;5025861;28;20206;-80
2021/07/14 10:18:12;;;;;;;8.43;7.18;;;20.50;99.90;;;;;;5025963;28;20210;-82
2021/07/14 10:20:43;;;;;;;7.25;6.40;;;20.30;99.90;;;;;;5027537;28;20256;-78
2021/07/14 10:23:11;;;;;;;8.57;6.95;;;20.30;99.90;;;;;;5024713;28;20201;-83
2021/07/14 10:25:41;;;;;;;8.82;7.32;;;20.30;99.90;;;;;;5025057;28;20226;-79
2021/07/14 10:28:10;;;;;;;7.72;6.53;;;20.40;99.90;;;;;;5040009;28;20213;-81
2021/07/14 10:30:40;;;;;;;8.60;6.18;;;20.40;99.90;;;;;;5041904;28;20310;-78
2021/07/14 10:33:09;;;;;;;7.18;6.32;;;20.50;99.90;;;;;;5025034;28;20210;-79
2021/07/14 10:35:39;;;;;;;8.82;7.15;;;20.40;99.90;;;;;;5025384;28;20211;-82
2021/07/14 10:38:13;;;;;;;7.25;6.00;;;20.40;99.90;;;;;;5025114;28;20194;-82
2021/07/14 10:40:41;;;;;;;8.88;7.13;;;20.30;99.90;;;;;;5025565;28;20230;-84
2021/07/14 10:43:08;;;;;;;8.70;7.50;;;20.10;99.90;;;;;;5024612;28;20215;-81
2021/07/14 10:45:35;;;;;;;8.30;7.22;;;20.10;99.90;;;;;;5025635;28;20795;-78
2021/07/14 10:48:02;;;;;;;8.63;7.72;;;20.20;99.90;;;;;;5031527;28;20252;-80
2021/07/14 10:50:31;;;;;;;10.65;8.30;;;20.20;99.90;;;;;;5025844;28;20238;-79
2021/07/14 10:52:59;;;;;;;11.15;9.95;;;20.20;99.90;;;;;;5025056;28;20524;-79
2021/07/14 10:55:27;;;;;;;11.75;8.32;;;20.20;99.90;;;;;;5026959;28;20198;-84
2021/07/14 10:57:55;;;;;;;13.55;9.50;;;20.30;99.90;;;;;;5028349;28;20207;-79
2021/07/14 11:00:22;;;;;;;12.77;9.43;;;20.30;99.90;;;;;;5029274;28;20201;-79
2021/07/14 11:02:51;;;;;;;10.18;8.57;;;20.30;99.90;;;;;;5029331;28;20202;-81
2021/07/14 11:05:33;;;;;;;11.25;8.77;;;20.20;99.90;;;;;;5029043;28;20202;-78
2021/07/14 11:08:00;;;;;;;11.13;8.10;;;20.30;99.90;;;;;;5048149;28;20513;-81
2021/07/14 11:10:33;;;;;;;10.10;7.93;;;20.40;99.90;;;;;;5033527;28;20606;-79
2021/07/14 11:13:29;;;;;;;9.75;7.90;;;20.40;99.90;;;;;;5028416;28;20209;-78
2021/07/14 11:15:56;;;;;;;11.32;8.75;;;20.40;99.90;;;;;;5027881;28;20203;-79
2021/07/14 11:18:40;;;;;;;13.05;9.65;;;20.40;99.90;;;;;;5027322;28;20217;-79
2021/07/14 11:21:08;;;;;;;13.32;8.68;;;20.40;99.90;;;;;;5047107;28;20260;-80
2021/07/14 11:23:35;;;;;;;17.55;9.40;;;20.40;99.90;;;;;;5033902;28;20393;-81
2021/07/14 11:26:04;;;;;;;14.57;10.38;;;20.40;99.90;;;;;;5027603;28;20230;-80
2021/07/14 11:28:33;;;;;;;13.60;8.98;;;20.50;99.90;;;;;;5027921;28;20199;-80
2021/07/14 11:31:10;;;;;;;11.48;8.68;;;20.50;99.90;;;;;;5028151;28;20329;-79
2021/07/14 11:33:38;;;;;;;12.73;9.15;;;20.50;99.90;;;;;;5028311;28;20202;-81
2021/07/14 11:36:07;;;;;;;16.85;10.23;;;20.50;99.90;;;;;;5028473;28;20206;-79
2021/07/14 11:38:46;;;;;;;11.30;9.10;;;20.60;99.90;;;;;;5026898;28;20514;-79
2021/07/14 11:41:22;;;;;;;15.38;10.68;;;20.60;99.90;;;;;;5027649;28;20191;-77
2021/07/14 11:43:52;;;;;;;15.18;9.95;;;20.70;99.90;;;;;;5027542;28;20210;-77
2021/07/14 11:46:24;;;;;;;12.98;9.90;;;20.60;99.90;;;;;;5026122;28;20203;-79
2021/07/14 11:49:00;;;;;;;16.27;10.10;;;20.60;99.90;;;;;;5027145;28;20209;-80
2021/07/14 11:51:29;;;;;;;21.48;11.38;;;20.60;99.90;;;;;;5027224;28;20242;-80
2021/07/14 11:53:58;;;;;;;17.67;10.88;;;20.40;99.90;;;;;;5026225;28;20318;-81
2021/07/14 11:56:36;;;;;;;20.45;10.65;;;20.40;99.90;;;;;;5027607;28;20257;-80
2021/07/14 11:59:10;;;;;;;18.05;11.18;;;20.40;99.90;;;;;;5026771;28;20210;-78
2021/07/14 12:01:52;;;;;;;17.33;12.02;;;20.40;99.90;;;;;;5026883;28;20289;-78
2021/07/14 12:04:23;;;;;;;17.38;12.10;;;20.50;99.90;;;;;;5026623;28;20278;-80
2021/07/14 12:06:53;;;;;;;17.63;10.95;;;20.50;99.90;;;;;;5026244;28;20735;-80
2021/07/14 12:09:35;;;;;;;16.55;11.88;;;20.50;99.90;;;;;;5026528;28;20203;-78
2021/07/14 12:12:05;;;;;;;14.18;10.48;;;20.60;99.90;;;;;;5026780;28;20294;-81
2021/07/14 12:14:35;;;;;;;15.38;11.05;;;20.60;99.90;;;;;;5045512;28;20241;-76
2021/07/14 12:17:04;;;;;;;14.75;11.27;;;20.70;99.90;;;;;;5045885;28;20206;-77
2021/07/14 12:19:32;;;;;;;14.20;10.60;;;20.80;99.90;;;;;;5046419;28;20205;-79
2021/07/14 12:22:05;;;;;;;18.52;12.15;;;20.90;99.90;;;;;;5037426;28;20214;-80
2021/07/14 12:24:37;;;;;;;14.85;11.38;;;20.90;99.90;;;;;;5025775;28;20216;-81
2021/07/14 12:27:09;;;;;;;14.70;11.32;;;20.70;99.90;;;;;;5028083;28;20203;-82
2021/07/14 12:29:37;;;;;;;16.77;12.65;;;20.70;99.90;;;;;;5038480;28;20209;-81
2021/07/14 12:32:06;;;;;;;15.18;11.50;;;20.60;99.90;;;;;;5047176;28;20202;-81
2021/07/14 12:34:34;;;;;;;13.23;10.75;;;20.60;99.90;;;;;;5046438;28;20197;-80
2021/07/14 12:37:02;;;;;;;14.15;10.70;;;20.70;99.90;;;;;;5026269;28;20210;-82
2021/07/14 12:39:31;;;;;;;17.17;11.07;;;20.60;99.90;;;;;;5033984;28;20208;-82